createdAt,value
2019-03-26T00:01:43.854Z,88.04
2019-03-26T00:04:13.355Z,88.34
2019-03-26T00:06:42.861Z,88.09
2019-03-26T00:09:12.061Z,87.70
2019-03-26T00:11:42.286Z,87.52
2019-03-26T00:14:11.909Z,87.10
2019-03-26T00:16:41.498Z,87.22
2019-03-26T00:19:11.001Z,86.82
2019-03-26T00:21:40.508Z,86.83
2019-03-26T00:24:10.043Z,86.58
2019-03-26T00:26:39.230Z,86.34
2019-03-26T00:29:08.399Z,86.51
2019-03-26T00:31:37.924Z,86.54
2019-03-26T00:34:18.767Z,86.12
2019-03-26T00:36:38.482Z,85.66
2019-03-26T00:39:07.987Z,85.79
2019-03-26T00:41:37.451Z,85.94
2019-03-26T00:44:07.038Z,85.97
2019-03-26T00:46:36.493Z,86.09
2019-03-26T00:49:05.638Z,86.14
2019-03-26T00:51:34.845Z,86.11
2019-03-26T00:54:04.295Z,86.38
2019-03-26T00:56:33.473Z,86.35
2019-03-26T00:59:02.671Z,86.28
2019-03-26T01:01:32.191Z,86.28
2019-03-26T01:04:02.010Z,86.81
2019-03-26T01:06:31.290Z,86.89
2019-03-26T01:09:01.121Z,87.07
2019-03-26T01:11:30.621Z,87.32
2019-03-26T01:14:00.131Z,87.58
2019-03-26T01:16:29.739Z,87.63
2019-03-26T01:18:59.455Z,87.96
2019-03-26T01:21:28.651Z,88.49
2019-03-26T01:23:57.832Z,88.53
2019-03-26T01:26:27.033Z,88.73
2019-03-26T01:28:56.971Z,88.72
2019-03-26T01:31:26.468Z,88.62
2019-03-26T01:33:56.280Z,88.68
2019-03-26T01:36:25.780Z,88.52
2019-03-26T01:38:55.296Z,88.51
2019-03-26T01:41:25.408Z,88.71
2019-03-26T01:43:54.912Z,88.48
2019-03-26T01:46:25.138Z,88.58
2019-03-26T01:48:54.950Z,88.17
2019-03-26T01:51:24.458Z,87.71
2019-03-26T01:53:54.205Z,87.13
2019-03-26T01:56:23.979Z,86.48
2019-03-26T01:58:54.769Z,85.98
2019-03-26T02:01:23.942Z,85.30
2019-03-26T02:03:53.420Z,85.20
2019-03-26T02:06:23.196Z,84.93
2019-03-26T02:08:52.735Z,85.21
2019-03-26T02:11:22.318Z,85.62
2019-03-26T02:13:51.860Z,85.58
2019-03-26T02:16:21.355Z,85.12
2019-03-26T02:18:50.856Z,85.12
2019-03-26T02:21:20.377Z,84.51
2019-03-26T02:23:50.181Z,84.17
2019-03-26T02:26:19.451Z,84.20
2019-03-26T02:28:49.197Z,84.11
2019-03-26T02:31:18.462Z,83.89
2019-03-26T02:33:47.684Z,83.53
2019-03-26T02:36:17.200Z,82.21
2019-03-26T02:38:46.719Z,82.07
2019-03-26T02:41:16.216Z,82.41
2019-03-26T02:43:46.028Z,82.94
2019-03-26T02:46:15.538Z,82.90
2019-03-26T02:48:45.595Z,82.90
2019-03-26T02:51:15.050Z,83.49
2019-03-26T02:53:44.566Z,83.61
2019-03-26T02:56:13.747Z,83.77
2019-03-26T02:58:42.905Z,84.20
2019-03-26T03:01:12.664Z,84.13
2019-03-26T03:03:41.846Z,83.91
2019-03-26T03:06:11.323Z,83.93
2019-03-26T03:08:40.997Z,83.67
2019-03-26T03:11:10.501Z,83.79
2019-03-26T03:13:40.117Z,83.65
2019-03-26T03:16:09.913Z,83.40
2019-03-26T03:18:39.409Z,83.63
2019-03-26T03:21:08.594Z,83.58
2019-03-26T03:23:37.856Z,83.86
2019-03-26T03:26:07.488Z,83.70
2019-03-26T03:28:36.680Z,83.48
2019-03-26T03:31:06.259Z,83.52
2019-03-26T03:33:35.711Z,83.47
2019-03-26T03:36:04.949Z,83.53
2019-03-26T03:38:34.205Z,83.20
2019-03-26T03:41:03.921Z,83.18
2019-03-26T03:43:33.143Z,83.68
2019-03-26T03:46:02.749Z,83.36
2019-03-26T03:48:33.833Z,83.34
2019-03-26T03:51:04.735Z,83.66
2019-03-26T03:53:33.904Z,83.41
2019-03-26T03:56:04.155Z,83.48
2019-03-26T03:58:34.962Z,83.56
2019-03-26T04:01:04.477Z,83.60
2019-03-26T04:03:33.663Z,83.63
2019-03-26T04:06:09.345Z,83.77
2019-03-26T04:08:34.335Z,83.84
2019-03-26T04:11:03.612Z,83.67
2019-03-26T04:13:32.821Z,83.69
2019-03-26T04:16:02.024Z,83.90
2019-03-26T04:18:31.231Z,84.08
2019-03-26T04:21:00.379Z,84.60
2019-03-26T04:23:29.783Z,84.57
2019-03-26T04:25:58.992Z,84.54
2019-03-26T04:28:28.187Z,84.74
2019-03-26T04:30:58.343Z,84.80
2019-03-26T04:33:27.857Z,84.57
2019-03-26T04:35:57.073Z,84.42
2019-03-26T04:38:26.288Z,84.26
2019-03-26T04:40:56.067Z,84.05
2019-03-26T04:43:25.583Z,83.77
2019-03-26T04:45:56.158Z,83.82
2019-03-26T04:48:25.320Z,83.76
2019-03-26T04:50:54.529Z,83.87
2019-03-26T04:53:24.315Z,83.91
2019-03-26T04:55:53.497Z,84.32
2019-03-26T04:58:23.020Z,84.71
2019-03-26T05:00:52.921Z,84.55
2019-03-26T05:03:22.467Z,84.46
2019-03-26T05:05:51.931Z,84.89
2019-03-26T05:08:21.346Z,84.91
2019-03-26T05:10:50.852Z,84.76
2019-03-26T05:13:20.057Z,84.67
2019-03-26T05:15:49.534Z,84.67
2019-03-26T05:18:19.314Z,84.91
2019-03-26T05:20:48.771Z,85.39
2019-03-26T05:23:18.288Z,85.66
2019-03-26T05:25:47.802Z,86.14
2019-03-26T05:28:16.969Z,85.99
2019-03-26T05:30:46.455Z,85.69
2019-03-26T05:33:16.013Z,85.70
2019-03-26T05:35:45.510Z,85.42
2019-03-26T05:38:14.808Z,85.11
2019-03-26T05:40:44.316Z,84.96
2019-03-26T05:43:13.819Z,83.83
2019-03-26T05:45:43.419Z,83.83
2019-03-26T05:48:12.624Z,83.34
2019-03-26T05:50:42.736Z,82.59
2019-03-26T05:53:12.250Z,81.82
2019-03-26T05:55:41.503Z,81.05
2019-03-26T05:58:11.139Z,81.05
2019-03-26T06:00:40.667Z,80.37
2019-03-26T06:03:10.230Z,80.33
2019-03-26T06:05:39.409Z,79.95
2019-03-26T06:08:08.590Z,80.47
2019-03-26T06:10:38.071Z,80.52
2019-03-26T06:13:07.247Z,80.52
2019-03-26T06:15:36.447Z,80.64
2019-03-26T06:18:05.705Z,80.37
2019-03-26T06:20:35.165Z,80.53
2019-03-26T06:23:05.702Z,80.03
2019-03-26T06:25:34.912Z,80.03
2019-03-26T06:28:04.406Z,80.30
2019-03-26T06:30:34.217Z,80.30
2019-03-26T06:33:03.721Z,81.10
2019-03-26T06:35:32.887Z,81.10
2019-03-26T06:38:02.079Z,81.22
2019-03-26T06:40:31.844Z,81.22
2019-03-26T06:43:01.643Z,80.74
2019-03-26T06:45:31.383Z,80.09
2019-03-26T06:48:00.658Z,79.00
2019-03-26T06:50:30.162Z,79.00
2019-03-26T06:52:59.318Z,78.73
2019-03-26T06:55:28.760Z,77.90
2019-03-26T06:57:58.379Z,77.90
2019-03-26T07:00:31.785Z,77.16
2019-03-26T07:03:04.042Z,77.21
2019-03-26T07:05:33.205Z,77.14
2019-03-26T07:08:03.043Z,77.23
2019-03-26T07:10:32.665Z,76.89
2019-03-26T07:13:02.474Z,76.86
2019-03-26T07:15:31.697Z,76.86
2019-03-26T07:18:00.953Z,76.85
2019-03-26T07:20:30.155Z,76.85
2019-03-26T07:22:59.511Z,77.09
2019-03-26T07:25:29.070Z,77.44
2019-03-26T07:27:58.715Z,77.35
2019-03-26T07:30:53.481Z,76.86
2019-03-26T07:33:23.036Z,76.86
2019-03-26T07:35:52.594Z,77.05
2019-03-26T07:38:22.408Z,76.48
2019-03-26T07:40:51.933Z,76.19
2019-03-26T07:43:21.232Z,76.19
2019-03-26T07:45:51.133Z,75.70
2019-03-26T07:48:20.945Z,75.70
2019-03-26T07:50:50.568Z,74.59
2019-03-26T07:53:19.735Z,74.59
2019-03-26T07:55:49.464Z,74.23
2019-03-26T07:58:18.720Z,74.06
2019-03-26T08:00:48.175Z,74.63
2019-03-26T08:03:17.577Z,73.87
2019-03-26T08:05:46.726Z,73.82
2019-03-26T08:08:16.494Z,74.53
2019-03-26T08:10:45.991Z,73.00
2019-03-26T08:13:15.201Z,73.43
2019-03-26T08:15:44.394Z,73.43
2019-03-26T08:18:13.672Z,73.44
2019-03-26T08:20:43.400Z,73.44
2019-03-26T08:23:12.882Z,73.50
2019-03-26T08:25:42.041Z,74.36
2019-03-26T08:28:11.298Z,73.89
2019-03-26T08:30:40.911Z,73.89
2019-03-26T08:33:10.423Z,71.63
2019-03-26T08:35:39.966Z,70.62
2019-03-26T08:38:12.734Z,70.53
2019-03-26T08:40:40.054Z,71.30
2019-03-26T08:43:09.578Z,71.20
2019-03-26T08:45:38.810Z,72.18
2019-03-26T08:48:08.261Z,73.87
2019-03-26T08:50:37.773Z,74.66
2019-03-26T08:53:07.015Z,75.23
2019-03-26T08:55:36.475Z,74.09
2019-03-26T08:58:05.826Z,73.09
2019-03-26T09:00:35.404Z,72.95
2019-03-26T09:03:04.580Z,72.36
2019-03-26T09:05:34.084Z,72.36
2019-03-26T09:08:04.002Z,72.40
2019-03-26T09:10:33.505Z,74.79
2019-03-26T09:13:03.119Z,74.11
2019-03-26T09:15:32.724Z,74.69
2019-03-26T09:18:02.452Z,75.22
2019-03-26T09:20:32.247Z,73.14
2019-03-26T09:23:01.461Z,73.08
2019-03-26T09:25:30.902Z,73.08
2019-03-26T09:28:00.097Z,72.43
2019-03-26T09:30:30.268Z,70.73
2019-03-26T09:32:59.481Z,70.73
2019-03-26T09:35:28.976Z,70.64
2019-03-26T09:37:58.209Z,69.94
2019-03-26T09:40:27.704Z,68.47
2019-03-26T09:42:57.489Z,68.47
2019-03-26T09:45:26.740Z,70.52
2019-03-26T09:47:56.293Z,70.29
2019-03-26T09:50:34.160Z,70.29
2019-03-26T09:53:03.571Z,70.27
2019-03-26T09:55:33.109Z,69.61
2019-03-26T09:58:03.332Z,69.61
2019-03-26T10:00:32.953Z,70.11
2019-03-26T10:03:02.607Z,69.96
2019-03-26T10:05:32.087Z,69.68
2019-03-26T10:08:01.552Z,69.34
2019-03-26T10:10:30.740Z,69.34
2019-03-26T10:12:59.940Z,70.78
2019-03-26T10:15:30.085Z,70.23
2019-03-26T10:17:59.280Z,69.31
2019-03-26T10:20:28.800Z,68.67
2019-03-26T10:22:58.380Z,68.57
2019-03-26T10:25:27.615Z,68.57
2019-03-26T10:27:57.117Z,68.79
2019-03-26T10:30:35.214Z,68.54
2019-03-26T10:33:04.692Z,68.47
2019-03-26T10:35:33.964Z,67.17
2019-03-26T10:38:03.184Z,65.90
2019-03-26T10:40:33.600Z,64.67
2019-03-26T10:43:03.278Z,63.77
2019-03-26T10:45:32.853Z,63.26
2019-03-26T10:48:02.773Z,63.74
2019-03-26T10:50:32.370Z,64.15
2019-03-26T10:53:01.568Z,61.74
2019-03-26T10:55:30.767Z,61.86
2019-03-26T10:58:00.902Z,62.15
2019-03-26T11:00:30.418Z,61.53
2019-03-26T11:02:59.884Z,61.21
2019-03-26T11:05:29.303Z,61.70
2019-03-26T11:07:58.999Z,61.92
2019-03-26T11:10:28.242Z,61.22
2019-03-26T11:12:58.125Z,63.42
2019-03-26T11:15:27.367Z,62.92
2019-03-26T11:17:56.841Z,63.68
2019-03-26T11:20:26.337Z,63.06
2019-03-26T11:22:55.740Z,62.12
2019-03-26T11:25:25.088Z,62.34
2019-03-26T11:27:54.623Z,61.51
2019-03-26T11:30:24.162Z,59.29
2019-03-26T11:32:53.682Z,58.77
2019-03-26T11:35:23.172Z,59.24
2019-03-26T11:37:52.715Z,58.10
2019-03-26T11:40:22.609Z,58.34
2019-03-26T11:42:51.761Z,58.94
2019-03-26T11:45:21.009Z,59.47
2019-03-26T11:47:50.826Z,59.84
2019-03-26T11:50:20.105Z,58.61
2019-03-26T11:52:49.385Z,58.04
2019-03-26T11:55:21.690Z,58.00
2019-03-26T11:57:50.142Z,57.72
2019-03-26T12:00:24.076Z,57.43
2019-03-26T12:02:53.877Z,55.21
2019-03-26T12:05:23.795Z,55.34
2019-03-26T12:07:52.988Z,54.01
2019-03-26T12:10:22.605Z,53.29
2019-03-26T12:12:52.408Z,53.29
2019-03-26T12:15:22.024Z,54.86
2019-03-26T12:17:51.191Z,52.81
2019-03-26T12:20:20.726Z,54.47
2019-03-26T12:22:50.235Z,54.47
2019-03-26T12:25:19.374Z,55.58
2019-03-26T12:27:48.830Z,56.83
2019-03-26T12:30:31.544Z,56.26
2019-03-26T12:33:00.760Z,56.25
2019-03-26T12:35:30.515Z,56.99
2019-03-26T12:38:00.166Z,54.77
2019-03-26T12:40:29.773Z,55.74
2019-03-26T12:42:59.892Z,55.74
2019-03-26T12:45:29.176Z,55.10
2019-03-26T12:47:58.452Z,54.63
2019-03-26T12:50:27.897Z,54.88
2019-03-26T12:52:57.119Z,53.50
2019-03-26T12:55:26.294Z,52.36
2019-03-26T12:57:55.806Z,52.36
2019-03-26T13:00:31.476Z,52.35
2019-03-26T13:03:00.955Z,51.88
2019-03-26T13:05:30.232Z,51.24
2019-03-26T13:08:00.073Z,51.67
2019-03-26T13:10:29.564Z,52.61
2019-03-26T13:12:58.744Z,53.23
2019-03-26T13:15:28.279Z,51.90
2019-03-26T13:17:57.436Z,53.11
2019-03-26T13:20:27.189Z,53.64
2019-03-26T13:22:56.478Z,53.19
2019-03-26T13:25:25.827Z,52.08
2019-03-26T13:27:55.141Z,54.05
2019-03-26T13:30:24.340Z,55.24
2019-03-26T13:32:54.203Z,54.53
2019-03-26T13:35:23.913Z,54.30
2019-03-26T13:37:53.087Z,55.48
2019-03-26T13:40:27.528Z,57.04
2019-03-26T13:42:53.455Z,57.66
2019-03-26T13:45:23.207Z,57.66
2019-03-26T13:47:52.676Z,54.50
2019-03-26T13:50:22.279Z,54.50
2019-03-26T13:52:51.426Z,54.67
2019-03-26T13:55:20.880Z,54.67
2019-03-26T13:57:50.387Z,53.62
2019-03-26T14:00:33.273Z,53.06
2019-03-26T14:03:03.404Z,51.02
2019-03-26T14:05:32.935Z,51.05
2019-03-26T14:08:02.280Z,51.66
2019-03-26T14:10:40.945Z,51.14
2019-03-26T14:13:02.726Z,52.04
2019-03-26T14:15:32.302Z,52.04
2019-03-26T14:18:01.488Z,53.21
2019-03-26T14:20:30.657Z,52.41
2019-03-26T14:22:59.832Z,52.83
2019-03-26T14:25:29.287Z,53.87
2019-03-26T14:27:58.685Z,54.80
2019-03-26T14:30:39.673Z,55.00
2019-03-26T14:33:09.582Z,54.69
2019-03-26T14:35:38.847Z,55.23
2019-03-26T14:38:08.490Z,56.53
2019-03-26T14:40:37.677Z,58.14
2019-03-26T14:43:07.127Z,56.53
2019-03-26T14:45:36.722Z,57.50
2019-03-26T14:48:06.515Z,57.18
2019-03-26T14:50:36.025Z,56.26
2019-03-26T14:53:05.282Z,56.26
2019-03-26T14:55:34.947Z,55.20
2019-03-26T14:58:04.431Z,55.22
2019-03-26T15:00:34.706Z,54.52
2019-03-26T15:03:04.252Z,54.93
2019-03-26T15:05:33.873Z,53.04
2019-03-26T15:08:03.054Z,54.34
2019-03-26T15:10:32.583Z,53.59
2019-03-26T15:13:01.791Z,53.74
2019-03-26T15:15:31.382Z,54.38
2019-03-26T15:18:00.645Z,53.09
2019-03-26T15:20:29.898Z,54.91
2019-03-26T15:22:59.102Z,54.70
2019-03-26T15:25:28.281Z,54.57
2019-03-26T15:27:57.456Z,55.13
2019-03-26T15:30:26.631Z,54.56
2019-03-26T15:32:56.391Z,54.83
2019-03-26T15:35:25.584Z,54.50
2019-03-26T15:37:54.857Z,56.01
2019-03-26T15:40:24.598Z,55.42
2019-03-26T15:42:54.102Z,56.24
2019-03-26T15:45:23.331Z,56.24
2019-03-26T15:47:52.816Z,56.13
2019-03-26T15:50:39.316Z,56.70
2019-03-26T15:53:08.919Z,56.95
2019-03-26T15:55:38.530Z,58.05
2019-03-26T15:58:07.816Z,58.61
2019-03-26T16:00:37.333Z,58.76
2019-03-26T16:03:06.944Z,57.87
2019-03-26T16:05:36.759Z,59.02
2019-03-26T16:08:06.260Z,59.02
2019-03-26T16:10:35.768Z,59.09
2019-03-26T16:13:05.272Z,59.09
2019-03-26T16:15:44.332Z,58.78
2019-03-26T16:18:06.335Z,59.13
2019-03-26T16:20:35.883Z,59.56
2019-03-26T16:23:05.108Z,58.77
2019-03-26T16:25:34.642Z,58.77
2019-03-26T16:28:04.253Z,58.78
2019-03-26T16:30:34.587Z,58.22
2019-03-26T16:33:04.710Z,58.00
2019-03-26T16:35:34.208Z,58.00
2019-03-26T16:38:03.734Z,58.51
2019-03-26T16:40:33.520Z,59.29
2019-03-26T16:43:02.729Z,58.84
2019-03-26T16:45:33.094Z,59.09
2019-03-26T16:48:02.669Z,59.09
2019-03-26T16:50:31.865Z,58.38
2019-03-26T16:53:01.145Z,58.90
2019-03-26T16:55:30.675Z,58.42
2019-03-26T16:57:59.851Z,59.04
2019-03-26T17:00:36.133Z,58.63
2019-03-26T17:03:05.579Z,58.91
2019-03-26T17:05:35.143Z,58.92
2019-03-26T17:08:04.364Z,59.54
2019-03-26T17:10:33.668Z,58.77
2019-03-26T17:13:03.144Z,58.60
2019-03-26T17:15:33.575Z,59.31
2019-03-26T17:18:02.735Z,59.68
2019-03-26T17:20:31.948Z,60.40
2019-03-26T17:23:01.800Z,59.78
2019-03-26T17:25:31.396Z,60.15
2019-03-26T17:28:00.867Z,60.46
2019-03-26T17:30:30.073Z,60.71
2019-03-26T17:32:59.495Z,60.94
2019-03-26T17:35:28.896Z,60.94
2019-03-26T17:38:00.302Z,60.51
2019-03-26T17:40:29.467Z,61.47
2019-03-26T17:42:59.020Z,61.60
2019-03-26T17:45:28.566Z,62.85
2019-03-26T17:47:57.845Z,62.75
2019-03-26T17:50:27.267Z,62.83
2019-03-26T17:52:56.775Z,63.35
2019-03-26T17:55:25.983Z,63.24
2019-03-26T17:57:57.011Z,63.48
2019-03-26T18:00:44.644Z,64.90
2019-03-26T18:03:25.552Z,63.69
2019-03-26T18:05:45.267Z,63.69
2019-03-26T18:08:15.209Z,63.99
2019-03-26T18:10:44.709Z,63.86
2019-03-26T18:13:14.367Z,65.14
2019-03-26T18:15:44.350Z,65.51
2019-03-26T18:18:14.554Z,66.05
2019-03-26T18:20:43.758Z,65.69
2019-03-26T18:23:13.194Z,65.79
2019-03-26T18:25:43.284Z,65.77
2019-03-26T18:28:12.787Z,66.15
2019-03-26T18:30:42.306Z,66.87
2019-03-26T18:33:11.931Z,68.33
2019-03-26T18:35:41.403Z,68.59
2019-03-26T18:38:14.742Z,68.90
2019-03-26T18:40:43.279Z,69.14
2019-03-26T18:43:12.659Z,70.10
2019-03-26T18:45:42.192Z,71.06
2019-03-26T18:48:11.408Z,71.12
2019-03-26T18:50:41.913Z,71.18
2019-03-26T18:53:11.984Z,74.33
2019-03-26T18:55:41.441Z,74.33
2019-03-26T18:58:10.956Z,73.87
2019-03-26T19:00:40.731Z,74.43
2019-03-26T19:03:09.953Z,74.43
2019-03-26T19:05:39.476Z,75.59
2019-03-26T19:08:09.685Z,75.59
2019-03-26T19:10:38.998Z,76.08
2019-03-26T19:13:18.430Z,76.08
2019-03-26T19:15:39.451Z,76.66
2019-03-26T19:18:09.154Z,77.39
2019-03-26T19:20:38.698Z,77.85
2019-03-26T19:23:07.972Z,78.66
2019-03-26T19:25:37.283Z,78.89
2019-03-26T19:28:06.885Z,79.93
2019-03-26T19:30:36.287Z,79.93
2019-03-26T19:33:05.907Z,79.82
2019-03-26T19:35:35.228Z,79.82
2019-03-26T19:38:04.517Z,81.06
2019-03-26T19:40:33.702Z,81.07
2019-03-26T19:43:10.673Z,81.87
2019-03-26T19:45:35.063Z,81.87
2019-03-26T19:48:04.651Z,82.57
2019-03-26T19:50:34.157Z,83.15
2019-03-26T19:53:03.378Z,83.75
2019-03-26T19:55:32.969Z,83.75
2019-03-26T19:58:02.587Z,83.91
2019-03-26T20:00:32.177Z,83.84
2019-03-26T20:03:02.108Z,83.89
2019-03-26T20:05:31.320Z,84.33
2019-03-26T20:08:00.991Z,84.04
2019-03-26T20:10:30.321Z,83.59
2019-03-26T20:12:59.606Z,83.78
2019-03-26T20:15:28.835Z,83.98
2019-03-26T20:17:58.315Z,83.98
2019-03-26T20:20:27.625Z,83.97
2019-03-26T20:22:57.868Z,83.93
2019-03-26T20:25:27.344Z,84.29
2019-03-26T20:27:56.883Z,84.31
2019-03-26T20:30:26.867Z,84.59
2019-03-26T20:32:56.152Z,84.59
2019-03-26T20:35:25.433Z,83.67
2019-03-26T20:37:54.627Z,84.20
2019-03-26T20:40:24.174Z,84.20
2019-03-26T20:42:53.678Z,84.74
2019-03-26T20:45:22.983Z,85.26
2019-03-26T20:47:52.796Z,85.38
2019-03-26T20:50:22.396Z,85.90
2019-03-26T20:52:52.095Z,85.44
2019-03-26T20:55:32.978Z,85.46
2019-03-26T20:58:02.703Z,85.46
2019-03-26T21:00:42.250Z,85.68
2019-03-26T21:03:11.635Z,85.61
2019-03-26T21:05:41.099Z,85.78
2019-03-26T21:08:10.763Z,85.91
2019-03-26T21:10:40.356Z,85.91
2019-03-26T21:13:09.963Z,86.24
2019-03-26T21:15:42.371Z,86.39
2019-03-26T21:18:10.372Z,86.51
2019-03-26T21:20:39.676Z,86.11
2019-03-26T21:23:09.529Z,86.68
2019-03-26T21:25:38.822Z,85.83
2019-03-26T21:28:08.325Z,85.86
2019-03-26T21:30:37.830Z,85.86
2019-03-26T21:33:07.118Z,86.44
2019-03-26T21:35:37.153Z,87.00
2019-03-26T21:38:06.860Z,87.00
2019-03-26T21:40:36.381Z,87.45
2019-03-26T21:43:05.554Z,87.47
2019-03-26T21:45:36.612Z,87.24
2019-03-26T21:48:07.474Z,87.19
2019-03-26T21:50:37.363Z,86.85
2019-03-26T21:53:06.877Z,86.94
2019-03-26T21:55:36.481Z,87.24
2019-03-26T21:58:05.785Z,87.12
2019-03-26T22:00:35.509Z,87.00
2019-03-26T22:03:05.579Z,86.97
2019-03-26T22:05:35.439Z,87.13
2019-03-26T22:08:05.143Z,87.59
2019-03-26T22:10:34.642Z,87.22
2019-03-26T22:13:04.247Z,87.39
2019-03-26T22:15:34.093Z,87.39
2019-03-26T22:18:03.560Z,87.57
2019-03-26T22:20:33.288Z,87.87
2019-03-26T22:23:02.629Z,87.95
2019-03-26T22:25:32.697Z,87.52
2019-03-26T22:28:02.317Z,87.52
2019-03-26T22:30:31.921Z,88.04
2019-03-26T22:33:01.125Z,88.42
2019-03-26T22:35:30.621Z,88.42
2019-03-26T22:38:00.118Z,88.64
2019-03-26T22:40:29.627Z,88.64
2019-03-26T22:42:59.224Z,88.89
2019-03-26T22:45:28.438Z,88.42
2019-03-26T22:47:58.041Z,88.42
2019-03-26T22:50:27.649Z,88.92
2019-03-26T22:52:56.849Z,89.45
2019-03-26T22:55:26.349Z,89.45
2019-03-26T22:57:55.861Z,89.37
2019-03-26T23:00:25.700Z,89.29
2019-03-26T23:02:55.280Z,89.49
2019-03-26T23:05:24.492Z,88.65
2019-03-26T23:07:53.991Z,89.37
2019-03-26T23:10:23.249Z,89.15
2019-03-26T23:12:52.430Z,89.10
2019-03-26T23:15:23.605Z,88.77
2019-03-26T23:17:53.137Z,87.98
2019-03-26T23:20:23.047Z,88.37
2019-03-26T23:22:52.384Z,88.06
2019-03-26T23:25:21.582Z,88.06
2019-03-26T23:27:51.159Z,88.50
2019-03-26T23:30:21.225Z,88.99
2019-03-26T23:32:50.419Z,89.61
2019-03-26T23:35:20.287Z,89.61
2019-03-26T23:37:49.529Z,89.77
2019-03-26T23:40:19.818Z,89.77
2019-03-26T23:42:49.728Z,90.21
2019-03-26T23:45:19.336Z,90.30
2019-03-26T23:47:48.947Z,90.30
2019-03-26T23:50:18.448Z,90.29
2019-03-26T23:52:47.952Z,90.29
2019-03-26T23:55:17.969Z,90.53
2019-03-26T23:57:47.309Z,90.53
